Station: Mount Bundey North (Defence)

  Atmospheric Gas Attenuation - ITU Rec 676-11   --------------- db/100km ---------------
Date Time Temp RH % AH g/m3 Dew Point Wind Direction Speed kph Gust kph Barometer mB Rainfall Since 9am 24GHz 47GHz 76GHz 122GHz 134GHz 241GHz
07 06:50 21.1 76 14 16.7 4 6 1013.1 0 30.7 32.6 57.9 152.8 160.4 556.0
07 06:40 21.2 76 14.08 16.8 6 6 1013.1 0 30.8 32.7 58.2 153.5 161.3 559.3
07 06:30 21.1 76 14 16.7 4 6 1013.1 0 30.7 32.6 57.9 152.8 160.4 556.0
07 06:20 21 78 14.29 17 4 4 1013.1 0 31.3 33.1 59.2 156.3 164.8 571.2
07 06:10 20.9 79 14.39 17.1 4 4 1013.1 0 31.5 33.3 59.7 157.7 166.4 577.0
07 06:00 20.3 80 14.07 16.7 4 6 1013.1 0 30.9 33.0 58.8 155.2 163.1 565.4
07 05:50 20.3 79 13.89 16.5 4 4 1013.1 0 30.5 32.7 58.0 153.1 160.5 556.3
07 05:40 20.6 79 14.14 16.8 4 4 1013.1 0 31.0 33.0 58.9 155.4 163.5 566.7
07 05:30 20.6 79 14.14 16.8 4 6 1013.1 0 31.0 33.0 58.9 155.4 163.5 566.7
07 05:20 20.4 80 14.15 16.8 2 2 1013.1 0 31.0 33.1 59.1 155.9 164.0 568.7
07 05:10 20.3 79 13.89 16.5 0 2 1013.1 0 30.5 32.7 58.0 153.1 160.5 556.3
07 04:50 20.6 78 13.96 16.6 0 0 1013.1 0 30.6 32.7 58.1 153.3 160.9 557.7
07 04:40 20.4 79 13.97 16.6 0 2 1013.1 0 30.7 32.8 58.3 153.8 161.5 559.6
07 04:30 20.2 79 13.81 16.4 2 4 1013.1 0 30.3 32.6 57.7 152.3 159.6 553.1
07 04:20 20 79 13.65 16.2 2 2 1013.1 0 30.0 32.4 57.2 150.9 157.7 546.5
07 04:10 20.4 79 13.97 16.6 0 0 1013.1 0 30.7 32.8 58.3 153.8 161.5 559.6
07 04:00 20.5 78 13.88 16.5 0 0 1013.1 0 30.5 32.6 57.8 152.6 160.0 554.4
07 03:50 20.5 78 13.88 16.5 0 0 1013.1 0 30.5 32.6 57.8 152.6 160.0 554.4
07 03:40 20.7 77 13.86 16.5 2 4 1013.1 0 30.4 32.5 57.6 151.9 159.2 552.0
07 03:30 20.7 76 13.68 16.3 0 2 1013.1 0 30.0 32.2 56.8 149.9 156.7 543.0
07 03:20 20.8 75 13.58 16.2 0 0 1013.1 0 29.8 31.9 56.3 148.5 155.1 537.4
07 03:10 21.1 73 13.45 16.2 0 0 1013.1 0 29.5 31.6 55.5 146.5 152.6 528.9
07 03:00 21.2 73 13.53 16.2 0 0 1013.1 0 29.7 31.7 55.8 147.2 153.6 532.2
07 02:50 21.6 72 13.65 16.3 0 0 1013.1 0 29.9 31.8 56.0 147.8 154.4 535.3
07 02:40 21.9 71 13.7 16.4 2 4 1013.1 0 30.0 31.8 56.0 147.8 154.5 535.6
07 02:30 22.2 70 13.74 16.5 4 6 1013.1 0 30.0 31.7 56.0 147.7 154.5 535.5
07 02:20 22.4 69 13.7 16.4 4 6 1013.1 0 29.9 31.6 55.6 146.8 153.5 532.2
07 02:10 22.7 68 13.74 16.5 6 6 1013.1 0 30.0 31.5 55.6 146.7 153.5 532.1
07 02:00 22.9 68 13.9 16.7 4 6 1013.1 0 30.3 31.7 56.1 148.1 155.3 538.4
07 01:50 23 67 13.77 16.5 4 6 1013.1 0 30.0 31.5 55.5 146.5 153.3 531.4
07 01:40 23 67 13.77 16.7 4 4 1013.1 0 30.0 31.5 55.5 146.5 153.3 531.4
07 01:30 23 68 13.98 16.8 4 7 1013.1 0 30.5 31.8 56.4 148.8 156.2 541.6
07 01:20 23 67 13.77 16.7 6 6 1013.1 0 30.0 31.5 55.5 146.5 153.3 531.4
07 01:10 23.2 67 13.93 16.7 4 4 1013.1 0 30.4 31.7 56.0 147.9 155.1 537.8
07 01:00 23.3 67 14.01 16.8 4 7 1013.1 0 30.5 31.8 56.3 148.6 156.0 540.9
07 00:50 23.1 67 13.85 16.8 4 6 1013.1 0 30.2 31.6 55.8 147.2 154.2 534.6
07 00:40 23.1 67 13.85 16.8 6 6 1013.1 0 30.2 31.6 55.8 147.2 154.2 534.6
07 00:30 23.1 68 14.06 16.9 4 7 1013.1 0 30.6 31.9 56.7 149.6 157.1 544.7
07 00:20 23.2 67 13.93 16.9 4 4 1013.1 0 30.4 31.7 56.0 147.9 155.1 537.8
07 00:10 23.4 65 13.67 16.6 4 4 1013.1 0 29.8 31.2 54.8 144.6 151.1 523.9
07 00:00 23.7 65 13.9 16.7 4 7 1013.1 0 30.3 31.4 55.6 146.6 153.7 532.9
06 23:50 24 63 13.71 16.7 4 6 1013.1 0 29.8 31.0 54.6 144.0 150.5 521.8
06 23:40 24.3 63 13.94 17 6 7 1013.1 0 30.3 31.3 55.3 145.9 153.0 530.7
06 23:30 24.4 63 14.02 16.9 7 13 1013.1 0 30.5 31.4 55.6 146.6 153.9 533.8
06 23:20 24.7 62 14.03 16.9 7 9 1013.1 0 30.5 31.3 55.4 146.2 153.4 532.2
06 23:10 24.9 60 13.73 16.8 9 13 1013.1 0 29.8 30.7 54.0 142.5 149.0 516.8
06 23:00 25 61 14.04 17 7 13 1013.1 0 30.5 31.2 55.2 145.7 153.0 530.6
06 22:50 25.2 59 13.73 16.8 11 13 1013.1 0 29.8 30.6 53.8 142.0 148.4 514.8
06 22:40 25.4 61 14.36 17.3 11 15 1013.1 0 31.1 31.6 56.3 148.5 156.5 543.0
06 22:30 25.3 62 14.51 17.5 6 11 1013.1 0 31.4 31.9 57.0 150.4 158.7 550.8
06 22:20 25.4 62 14.6 17.8 6 6 1013.1 0 31.6 32.0 57.3 151.2 159.8 554.4
06 22:10 25.6 63 15 18 6 9 1013.1 0 32.4 32.6 58.8 155.2 164.8 572.0
06 22:00 25.5 64 15.15 18.2 6 11 1013.1 0 32.8 32.9 59.5 157.1 167.1 580.0
06 21:50 25.6 65 15.47 18.5 6 6 1013.1 0 33.4 33.4 60.8 160.5 171.3 594.7
06 21:40 25.8 63 15.17 18.4 6 6 1013.1 0 32.8 32.8 59.3 156.7 166.7 578.7
06 21:30 26 64 15.58 18.7 6 7 1013.1 0 33.6 33.4 60.9 160.9 172.0 597.0
06 21:20 26.1 63 15.42 18.5 6 6 1013.1 0 33.3 33.1 60.2 158.9 169.5 588.5
06 21:10 26.3 63 15.6 18.7 4 4 1013.1 0 33.6 33.3 60.8 160.5 171.6 595.6
06 21:00 26.4 63 15.68 18.8 4 7 1013.1 0 33.8 33.4 61.0 161.2 172.4 598.7
06 20:50 26.5 62 15.52 18.6 2 4 1013.1 0 33.5 33.1 60.3 159.2 170.0 590.3
06 20:40 26.6 62 15.61 18.7 2 4 1013.1 0 33.6 33.2 60.6 160.0 171.0 593.8
06 20:30 26.8 60 15.27 18.6 4 9 1013.1 0 32.9 32.6 59.0 155.8 165.9 576.1
06 20:20 27 60 15.44 18.8 7 9 1013.1 0 33.2 32.8 59.6 157.3 167.8 582.7
06 20:10 27.1 59 15.27 18.6 6 11 1013.1 0 32.9 32.5 58.8 155.2 165.3 573.8
06 20:00 27.4 59 15.52 18.9 6 13 1013.1 0 33.4 32.8 59.6 157.4 168.0 583.5
06 19:50 27.6 58 15.43 18.8 4 6 1013.1 0 33.2 32.6 59.1 156.0 166.4 577.7
06 19:40 27.7 58 15.52 18.9 6 9 1013.1 0 33.4 32.7 59.4 156.8 167.4 581.2
06 19:30 27.9 58 15.69 18.9 7 15 1013.1 0 33.7 32.9 59.9 158.3 169.2 587.8
06 19:20 28.1 57 15.59 19 6 9 1013.1 0 33.5 32.6 59.3 156.8 167.5 581.5
06 19:10 28.3 56 15.48 18.9 6 6 1013.1 0 33.2 32.4 58.7 155.2 165.5 574.9
06 19:00 28.5 56 15.65 18.9 7 17 1013.1 0 33.6 32.6 59.3 156.6 167.4 581.4
06 18:50 28.8 54 15.34 18.8 6 9 1013.1 0 32.9 32.0 57.8 152.7 162.6 564.7
06 18:40 29.1 53 15.31 18.8 2 4 1013.1 0 32.8 31.8 57.5 151.8 161.6 561.2
06 18:30 29.4 52 15.27 18.5 7 17 1013.1 0 32.7 31.6 57.1 150.8 160.4 557.2
06 18:20 29.7 50 14.92 18.4 7 13 1013.1 0 31.9 31.0 55.5 146.5 155.3 539.2
06 18:10 30.1 49 14.94 18.2 6 7 1013.1 0 32.0 30.9 55.3 146.0 154.7 537.4
06 18:00 30.3 48 14.8 18.1 9 17 1013.1 0 31.7 30.6 54.6 144.1 152.5 529.8
06 17:50 30.9 45 14.33 17.9 7 11 1013.1 0 30.6 29.6 52.4 138.2 145.4 505.1
06 17:40 31.5 40 13.15 16.6 9 13 1013.1 0 28.1 27.7 47.6 125.5 129.9 450.9
06 17:30 32 39 13.17 16.3 9 19 1013.1 0 28.2 27.5 47.4 124.9 129.3 448.9
06 17:20 32.6 34 11.85 15.1 7 9 1013.1 0 25.4 25.5 42.3 111.5 113.0 391.9
06 17:10 31.8 35 11.69 14.8 4 4 1013.1 0 25.1 25.5 42.2 111.1 112.3 389.4
06 17:00 31.6 36 11.9 15.1 2 7 1013.1 0 25.6 25.8 43.0 113.3 115.0 398.8
06 16:50 31.8 35 11.69 14.8 2 2 1013.1 0 25.1 25.5 42.2 111.1 112.3 389.4
06 16:40 31.9 35 11.76 14.9 4 4 1013.1 0 25.3 25.5 42.4 111.6 113.0 391.7
06 16:30 32.7 34 11.92 14.8 7 13 1013.1 0 25.5 25.5 42.5 112.0 113.7 394.2
06 16:20 32.5 34 11.79 14.6 4 6 1013.1 0 25.3 25.4 42.2 111.1 112.5 390.0
06 16:10 32.9 33 11.69 14.9 7 11 1013.1 0 25.0 25.1 41.6 109.6 110.8 384.2
06 16:00 32.9 33 11.69 14.5 7 11 1013.1 0 25.0 25.1 41.6 109.6 110.8 384.2
06 15:50 32.4 36 12.42 15.8 6 7 1013.1 0 26.6 26.3 44.4 117.1 119.9 415.9
06 15:40 31.2 40 12.94 16 6 7 1013.1 0 27.7 27.4 47.0 123.9 127.9 443.7
06 15:30 31.2 40 12.94 16 7 13 1013.1 0 27.7 27.4 47.0 123.9 127.9 443.7
06 15:20 31.3 38 12.36 15.6 6 7 1013.1 0 26.5 26.6 44.8 118.1 120.8 419.1
06 15:10 31.6 37 12.23 15.5 9 11 1013.1 0 26.2 26.3 44.2 116.5 118.9 412.2
06 15:00 32 38 12.83 15.9 9 17 1013.1 0 27.5 27.0 46.1 121.6 125.3 434.8
06 14:50 31.6 37 12.23 15.5 11 13 1013.1 0 26.2 26.3 44.2 116.5 118.9 412.2
06 14:40 31.7 37 12.3 15.6 6 7 1013.1 0 26.4 26.4 44.4 117.0 119.5 414.6
06 14:30 31.9 37 12.43 15.4 4 11 1013.1 0 26.6 26.5 44.7 117.9 120.7 418.9
06 14:20 31.7 37 12.3 15.6 7 9 1013.1 0 26.4 26.4 44.4 117.0 119.5 414.6
06 14:10 31.3 38 12.36 15.6 4 6 1013.1 0 26.5 26.6 44.8 118.1 120.8 419.1

Last Refresh: 07-Aug-2020 07:02:40

Most of the information presented on this site is sourced from the Bureau of Meteorology.  Copyright in all material sourced from the Bureau of Meteorology resides with the Commonwealth of Australia.